createdAt,value
2022-10-10T00:00:44.270Z,14.69
2022-10-10T00:03:18.139Z,14.66
2022-10-10T00:05:50.767Z,14.54
2022-10-10T00:08:23.496Z,14.56
2022-10-10T00:10:56.171Z,14.56
2022-10-10T00:13:30.331Z,14.57
2022-10-10T00:16:04.341Z,14.59
2022-10-10T00:18:44.458Z,14.61
2022-10-10T00:21:17.206Z,14.55
2022-10-10T00:23:50.110Z,14.52
2022-10-10T00:26:22.857Z,14.54
2022-10-10T00:28:58.153Z,14.55
2022-10-10T00:31:31.029Z,14.51
2022-10-10T00:34:03.736Z,14.46
2022-10-10T00:36:36.403Z,14.44
2022-10-10T00:39:09.439Z,14.46
2022-10-10T00:41:42.081Z,14.46
2022-10-10T00:44:16.949Z,14.45
2022-10-10T00:46:49.601Z,14.52
2022-10-10T00:49:25.939Z,14.53
2022-10-10T00:52:01.492Z,14.55
2022-10-10T00:54:35.027Z,14.50
2022-10-10T00:57:12.789Z,14.51
2022-10-10T00:59:47.647Z,14.43
2022-10-10T01:02:20.411Z,14.47
2022-10-10T01:04:53.156Z,14.40
2022-10-10T01:07:29.195Z,14.38
2022-10-10T01:10:07.017Z,14.40
2022-10-10T01:12:50.544Z,14.35
2022-10-10T01:15:35.955Z,14.34
2022-10-10T01:18:17.141Z,14.35
2022-10-10T01:21:14.514Z,14.37
2022-10-10T01:24:19.847Z,14.32
2022-10-10T01:27:09.519Z,14.32
2022-10-10T01:29:48.466Z,14.28
2022-10-10T01:32:30.105Z,14.31
2022-10-10T01:35:31.935Z,14.34
2022-10-10T01:38:15.021Z,14.29
2022-10-10T01:40:54.730Z,14.28
2022-10-10T01:43:27.587Z,14.26
2022-10-10T01:46:01.587Z,14.28
2022-10-10T01:48:34.650Z,14.28
2022-10-10T01:51:16.127Z,14.27
2022-10-10T01:54:01.566Z,14.24
2022-10-10T01:56:43.057Z,14.24
2022-10-10T01:59:30.793Z,14.25
2022-10-10T02:02:12.484Z,14.24
2022-10-10T02:04:50.410Z,14.22
2022-10-10T02:07:28.239Z,14.19
2022-10-10T02:10:05.374Z,14.18
2022-10-10T02:12:39.306Z,14.19
2022-10-10T02:15:15.258Z,14.20
2022-10-10T02:17:51.544Z,14.16
2022-10-10T02:20:27.220Z,14.18
2022-10-10T02:23:00.478Z,14.17
2022-10-10T02:25:38.668Z,14.13
2022-10-10T02:28:16.229Z,14.14
2022-10-10T02:30:51.329Z,14.14
2022-10-10T02:33:32.895Z,14.12
2022-10-10T02:36:07.198Z,14.07
2022-10-10T02:38:40.773Z,14.07
2022-10-10T02:41:18.238Z,14.09
2022-10-10T02:43:51.706Z,14.03
2022-10-10T02:46:25.366Z,14.05
2022-10-10T02:48:59.981Z,14.06
2022-10-10T02:51:32.640Z,14.08
2022-10-10T02:54:06.014Z,14.05
2022-10-10T02:56:38.736Z,14.01
2022-10-10T02:59:11.375Z,14.01
2022-10-10T03:01:44.118Z,14.02
2022-10-10T03:04:18.364Z,13.99
2022-10-10T03:06:51.094Z,13.96
2022-10-10T03:09:23.795Z,13.95
2022-10-10T03:11:56.521Z,13.95
2022-10-10T03:14:29.196Z,13.98
2022-10-10T03:17:01.871Z,13.98
2022-10-10T03:19:35.930Z,14.03
2022-10-10T03:22:08.578Z,14.00
2022-10-10T03:24:41.262Z,13.99
2022-10-10T03:27:13.962Z,13.99
2022-10-10T03:29:46.612Z,13.97
2022-10-10T03:32:19.335Z,13.99
2022-10-10T03:34:53.371Z,13.96
2022-10-10T03:37:26.215Z,13.98
2022-10-10T03:39:59.257Z,13.94
2022-10-10T03:42:31.951Z,13.97
2022-10-10T03:45:05.349Z,14.06
2022-10-10T03:47:38.109Z,13.99
2022-10-10T03:50:12.866Z,13.95
2022-10-10T03:52:45.675Z,13.91
2022-10-10T03:55:18.406Z,13.92
2022-10-10T03:57:51.006Z,13.93
2022-10-10T04:00:23.852Z,13.88
2022-10-10T04:02:56.554Z,13.92
2022-10-10T04:05:30.685Z,13.88
2022-10-10T04:08:03.852Z,13.96
2022-10-10T04:10:36.805Z,13.90
2022-10-10T04:13:09.532Z,13.93
2022-10-10T04:15:42.311Z,13.90
2022-10-10T04:18:15.052Z,13.88
2022-10-10T04:20:49.047Z,13.87
2022-10-10T04:23:22.017Z,13.88
2022-10-10T04:25:54.644Z,13.89
2022-10-10T04:28:27.334Z,13.88
2022-10-10T04:31:00.092Z,13.86
2022-10-10T04:33:33.053Z,13.85
2022-10-10T04:36:08.004Z,13.83
2022-10-10T04:38:40.790Z,13.84
2022-10-10T04:41:13.427Z,13.85
2022-10-10T04:43:46.136Z,13.84
2022-10-10T04:46:18.924Z,13.81
2022-10-10T04:48:52.322Z,13.81
2022-10-10T04:51:26.678Z,13.83
2022-10-10T04:53:59.541Z,13.79
2022-10-10T04:56:32.459Z,13.85
2022-10-10T04:59:06.450Z,13.80
2022-10-10T05:01:39.202Z,13.79
2022-10-10T05:04:13.077Z,13.82
2022-10-10T05:06:47.305Z,13.81
2022-10-10T05:09:19.991Z,13.76
2022-10-10T05:11:52.643Z,13.74
2022-10-10T05:14:25.350Z,13.76
2022-10-10T05:16:57.958Z,13.78
2022-10-10T05:19:30.725Z,13.75
2022-10-10T05:22:04.809Z,13.73
2022-10-10T05:24:38.194Z,13.70
2022-10-10T05:27:10.861Z,13.72
2022-10-10T05:29:43.672Z,13.72
2022-10-10T05:32:16.365Z,13.75
2022-10-10T05:34:49.221Z,13.72
2022-10-10T05:37:23.358Z,13.72
2022-10-10T05:39:56.697Z,13.75
2022-10-10T05:42:29.537Z,13.70
2022-10-10T05:45:02.426Z,13.66
2022-10-10T05:47:35.143Z,13.68
2022-10-10T05:50:12.840Z,13.69
2022-10-10T05:52:46.990Z,13.64
2022-10-10T05:55:19.710Z,13.66
2022-10-10T05:57:52.579Z,13.66
2022-10-10T06:00:25.571Z,13.65
2022-10-10T06:02:58.852Z,13.64
2022-10-10T06:05:31.852Z,13.62
2022-10-10T06:08:11.485Z,13.67
2022-10-10T06:10:46.963Z,13.63
2022-10-10T06:13:24.341Z,13.64
2022-10-10T06:15:58.229Z,13.67
2022-10-10T06:18:31.009Z,13.65
2022-10-10T06:21:04.770Z,13.65
2022-10-10T06:23:38.836Z,13.62
2022-10-10T06:26:12.141Z,13.61
2022-10-10T06:28:45.373Z,13.62
2022-10-10T06:31:18.453Z,13.63
2022-10-10T06:33:53.096Z,13.61
2022-10-10T06:36:25.945Z,13.63
2022-10-10T06:38:59.936Z,13.64
2022-10-10T06:41:33.079Z,13.60
2022-10-10T06:44:05.871Z,13.50
2022-10-10T06:46:39.137Z,13.51
2022-10-10T06:49:11.920Z,13.57
2022-10-10T06:51:44.861Z,13.60
2022-10-10T06:54:19.005Z,13.58
2022-10-10T06:56:52.092Z,13.64
2022-10-10T06:59:24.675Z,13.72
2022-10-10T07:01:57.741Z,13.67
2022-10-10T07:04:30.279Z,13.68
2022-10-10T07:07:03.200Z,13.67
2022-10-10T07:09:37.217Z,13.70
2022-10-10T07:12:10.302Z,13.67
2022-10-10T07:14:43.113Z,13.66
2022-10-10T07:17:16.038Z,13.69
2022-10-10T07:19:48.692Z,13.70
2022-10-10T07:22:21.337Z,13.72
2022-10-10T07:24:55.350Z,13.75
2022-10-10T07:27:28.135Z,13.87
2022-10-10T07:30:00.838Z,13.89
2022-10-10T07:32:33.675Z,14.02
2022-10-10T07:35:06.887Z,13.98
2022-10-10T07:37:40.351Z,14.10
2022-10-10T07:40:14.544Z,14.32
2022-10-10T07:42:47.314Z,14.34
2022-10-10T07:45:20.247Z,14.48
2022-10-10T07:47:53.630Z,14.61
2022-10-10T07:50:26.662Z,14.64
2022-10-10T07:52:59.620Z,14.70
2022-10-10T07:55:33.878Z,14.77
2022-10-10T07:58:06.785Z,14.76
2022-10-10T08:00:41.947Z,14.81
2022-10-10T08:03:18.756Z,14.75
2022-10-10T08:05:51.419Z,14.78
2022-10-10T08:08:24.145Z,14.80
2022-10-10T08:10:58.830Z,14.87
2022-10-10T08:13:31.504Z,14.87
2022-10-10T08:16:05.644Z,14.87
2022-10-10T08:18:38.398Z,14.90
2022-10-10T08:21:13.891Z,14.93
2022-10-10T08:23:47.133Z,14.95
2022-10-10T08:26:21.051Z,15.01
2022-10-10T08:28:53.780Z,14.97
2022-10-10T08:31:26.529Z,14.98
2022-10-10T08:33:59.362Z,14.99
2022-10-10T08:36:32.145Z,15.06
2022-10-10T08:39:05.108Z,15.03
2022-10-10T08:41:43.936Z,15.04
2022-10-10T08:44:22.847Z,15.08
2022-10-10T08:46:59.577Z,15.10
2022-10-10T08:49:35.912Z,15.13
2022-10-10T08:52:16.055Z,15.18
2022-10-10T08:54:58.579Z,15.27
2022-10-10T08:57:50.575Z,15.29
2022-10-10T09:00:25.522Z,15.37
2022-10-10T09:03:00.599Z,15.49
2022-10-10T09:05:49.184Z,15.62
2022-10-10T09:08:35.403Z,15.75
2022-10-10T09:11:18.047Z,15.88
2022-10-10T09:14:07.082Z,15.96
2022-10-10T09:16:48.339Z,16.05
2022-10-10T09:19:35.915Z,16.14
2022-10-10T09:22:16.995Z,16.26
2022-10-10T09:24:54.437Z,16.35
2022-10-10T09:27:30.999Z,16.41
2022-10-10T09:30:07.893Z,16.42
2022-10-10T09:32:44.313Z,16.53
2022-10-10T09:35:21.700Z,16.59
2022-10-10T09:38:01.428Z,16.69
2022-10-10T09:40:37.260Z,16.76
2022-10-10T09:43:15.014Z,16.83
2022-10-10T09:45:53.354Z,16.81
2022-10-10T09:48:30.799Z,16.93
2022-10-10T09:51:05.374Z,16.94
2022-10-10T09:53:38.149Z,16.81
2022-10-10T09:56:17.885Z,17.09
2022-10-10T09:58:53.262Z,17.11
2022-10-10T10:01:30.998Z,17.19
2022-10-10T10:04:30.401Z,17.23
2022-10-10T10:07:08.913Z,17.20
2022-10-10T10:09:41.759Z,17.22
2022-10-10T10:12:14.553Z,17.21
2022-10-10T10:14:47.533Z,17.02
2022-10-10T10:17:24.292Z,17.25
2022-10-10T10:19:59.350Z,17.27
2022-10-10T10:22:35.476Z,17.37
2022-10-10T10:25:31.894Z,17.16
2022-10-10T10:28:20.995Z,17.24
2022-10-10T10:30:55.362Z,17.36
2022-10-10T10:33:45.611Z,17.43
2022-10-10T10:36:31.506Z,17.43
2022-10-10T10:39:17.531Z,17.44
2022-10-10T10:41:57.526Z,17.48
2022-10-10T10:44:41.358Z,17.60
2022-10-10T10:47:29.558Z,17.59
2022-10-10T10:50:25.022Z,17.64
2022-10-10T10:53:02.697Z,17.69
2022-10-10T10:55:40.351Z,17.76
2022-10-10T11:01:51.811Z,17.75
2022-10-10T11:05:24.769Z,17.75
2022-10-10T11:07:42.295Z,17.73
2022-10-10T11:10:22.993Z,17.76
2022-10-10T11:13:04.583Z,17.73
2022-10-10T11:16:05.585Z,17.78
2022-10-10T11:18:38.457Z,17.78
2022-10-10T11:21:17.074Z,17.75
2022-10-10T11:23:57.221Z,17.71
2022-10-10T11:26:33.601Z,17.52
2022-10-10T11:29:12.364Z,17.59
2022-10-10T11:31:51.732Z,17.53
2022-10-10T11:34:29.765Z,17.57
2022-10-10T11:37:07.391Z,17.60
2022-10-10T11:39:47.085Z,17.55
2022-10-10T11:42:24.877Z,17.50
2022-10-10T11:45:03.538Z,17.45
2022-10-10T11:47:40.789Z,17.48
2022-10-10T11:50:18.848Z,17.48
2022-10-10T11:52:59.910Z,17.47
2022-10-10T11:55:39.228Z,17.52
2022-10-10T11:58:34.363Z,17.40
2022-10-10T12:01:16.635Z,17.47
2022-10-10T12:03:51.300Z,17.44
2022-10-10T12:06:31.511Z,17.47
2022-10-10T12:09:09.943Z,17.44
2022-10-10T12:11:49.322Z,17.51
2022-10-10T12:14:27.647Z,17.52
2022-10-10T12:17:01.037Z,17.51
2022-10-10T12:19:33.812Z,17.44
2022-10-10T12:22:12.599Z,17.48
2022-10-10T12:25:20.478Z,17.45
2022-10-10T12:28:23.526Z,17.33
2022-10-10T12:31:31.042Z,17.32
2022-10-10T12:34:12.625Z,17.28
2022-10-10T12:36:58.234Z,17.24
2022-10-10T12:39:37.131Z,17.22
2022-10-10T12:42:29.080Z,17.19
2022-10-10T12:45:03.024Z,17.19
2022-10-10T12:48:05.496Z,17.18
2022-10-10T12:50:41.146Z,17.12
2022-10-10T12:53:19.327Z,17.13
2022-10-10T12:55:54.572Z,17.13
2022-10-10T12:58:30.115Z,17.07
2022-10-10T13:01:08.637Z,17.03
2022-10-10T13:03:46.281Z,16.99
2022-10-10T13:06:27.362Z,16.97
2022-10-10T13:09:03.714Z,16.93
2022-10-10T13:11:51.716Z,16.90
2022-10-10T13:14:26.466Z,16.89
2022-10-10T13:17:00.497Z,16.91
2022-10-10T13:19:41.868Z,16.89
2022-10-10T13:22:15.222Z,16.89
2022-10-10T13:24:49.974Z,16.81
2022-10-10T13:27:24.836Z,16.79
2022-10-10T13:29:58.394Z,16.74
2022-10-10T13:32:35.484Z,16.80
2022-10-10T13:35:15.031Z,16.82
2022-10-10T13:37:51.648Z,16.75
2022-10-10T13:40:25.280Z,16.78
2022-10-10T13:42:58.578Z,16.79
2022-10-10T13:45:37.325Z,16.84
2022-10-10T13:48:22.192Z,16.74
2022-10-10T13:51:06.827Z,16.74
2022-10-10T13:53:51.918Z,16.76
2022-10-10T13:56:29.998Z,16.90
2022-10-10T13:59:08.873Z,16.87
2022-10-10T14:01:43.212Z,16.88
2022-10-10T14:04:23.432Z,16.89
2022-10-10T14:07:01.341Z,16.92
2022-10-10T14:09:39.087Z,16.89
2022-10-10T14:12:18.305Z,16.94
2022-10-10T14:14:52.776Z,16.97
2022-10-10T14:17:26.525Z,16.93
2022-10-10T14:20:00.442Z,16.92
2022-10-10T14:22:33.097Z,16.89
2022-10-10T14:25:06.493Z,16.77
2022-10-10T14:27:39.239Z,16.77
2022-10-10T14:30:15.307Z,16.69
2022-10-10T14:32:47.941Z,16.72
2022-10-10T14:35:21.955Z,16.58
2022-10-10T14:37:54.672Z,16.56
2022-10-10T14:40:29.422Z,16.47
2022-10-10T14:43:02.011Z,16.46
2022-10-10T14:45:35.226Z,16.42
2022-10-10T14:48:08.170Z,16.40
2022-10-10T14:50:44.428Z,16.36
2022-10-10T14:53:17.673Z,16.39
2022-10-10T14:55:55.264Z,16.30
2022-10-10T14:58:29.546Z,16.25
2022-10-10T15:01:02.378Z,16.20
2022-10-10T15:03:35.442Z,16.14
2022-10-10T15:06:11.105Z,16.16
2022-10-10T15:08:43.788Z,16.11
2022-10-10T15:11:17.625Z,16.12
2022-10-10T15:13:50.288Z,16.06
2022-10-10T15:16:22.862Z,16.07
2022-10-10T15:18:55.819Z,16.08
2022-10-10T15:21:29.765Z,16.05
2022-10-10T15:24:02.452Z,15.96
2022-10-10T15:26:35.117Z,15.98
2022-10-10T15:29:07.774Z,16.00
2022-10-10T15:31:40.459Z,16.04
2022-10-10T15:34:14.796Z,16.01
2022-10-10T15:36:48.711Z,16.03
2022-10-10T15:39:21.409Z,16.02
2022-10-10T15:41:54.004Z,16.03
2022-10-10T15:44:26.822Z,16.02
2022-10-10T15:46:59.434Z,16.07
2022-10-10T15:49:32.033Z,16.00
2022-10-10T15:52:06.202Z,15.91
2022-10-10T15:54:39.021Z,15.88
2022-10-10T15:57:15.168Z,15.99
2022-10-10T15:59:50.828Z,15.93
2022-10-10T16:02:23.337Z,15.93
2022-10-10T16:04:56.003Z,15.86
2022-10-10T16:07:31.797Z,15.88
2022-10-10T16:10:08.353Z,15.79
2022-10-10T16:12:40.964Z,15.75
2022-10-10T16:15:13.806Z,15.73
2022-10-10T16:17:46.433Z,15.76
2022-10-10T16:20:19.803Z,15.75
2022-10-10T16:22:53.908Z,15.76
2022-10-10T16:25:26.772Z,15.68
2022-10-10T16:27:59.553Z,15.73
2022-10-10T16:30:32.488Z,15.75
2022-10-10T16:33:05.368Z,15.73
2022-10-10T16:35:38.576Z,15.69
2022-10-10T16:38:12.571Z,15.68
2022-10-10T16:40:45.263Z,15.60
2022-10-10T16:43:18.119Z,15.59
2022-10-10T16:45:50.822Z,15.60
2022-10-10T16:48:23.413Z,15.63
2022-10-10T16:50:56.060Z,15.55
2022-10-10T16:53:30.317Z,15.54
2022-10-10T16:56:04.892Z,15.53
2022-10-10T16:58:38.948Z,15.55
2022-10-10T17:01:14.891Z,15.44
2022-10-10T17:03:47.985Z,15.56
2022-10-10T17:06:21.827Z,15.48
2022-10-10T17:08:59.936Z,15.42
2022-10-10T17:11:33.553Z,15.37
2022-10-10T17:14:06.578Z,15.41
2022-10-10T17:19:35.824Z,15.29
2022-10-10T17:22:09.227Z,15.35
2022-10-10T17:24:43.221Z,15.32
2022-10-10T17:27:16.078Z,15.34
2022-10-10T17:29:48.780Z,15.33
2022-10-10T17:32:22.012Z,15.25
2022-10-10T17:34:55.646Z,15.24
2022-10-10T17:37:28.390Z,15.29
2022-10-10T17:40:03.011Z,15.21
2022-10-10T17:42:36.123Z,15.19
2022-10-10T17:45:09.755Z,15.19
2022-10-10T17:47:42.356Z,15.23
2022-10-10T17:50:15.364Z,15.13
2022-10-10T17:52:48.014Z,15.16
2022-10-10T17:55:22.150Z,15.14
2022-10-10T17:57:54.931Z,15.11
2022-10-10T18:00:28.493Z,15.16
2022-10-10T18:03:03.519Z,15.13
2022-10-10T18:05:39.868Z,15.06
2022-10-10T18:08:12.482Z,15.06
2022-10-10T18:10:46.550Z,15.00
2022-10-10T18:13:19.357Z,15.04
2022-10-10T18:16:06.219Z,14.99
2022-10-10T18:18:40.308Z,14.91
2022-10-10T18:21:13.781Z,14.99
2022-10-10T18:23:47.110Z,14.98
2022-10-10T18:26:22.927Z,14.91
2022-10-10T18:28:56.346Z,14.92
2022-10-10T18:31:31.409Z,14.88
2022-10-10T18:34:05.485Z,14.89
2022-10-10T18:36:40.211Z,14.88
2022-10-10T18:39:16.592Z,14.85
2022-10-10T18:41:50.730Z,14.82
2022-10-10T18:44:23.599Z,14.82
2022-10-10T18:46:56.389Z,14.78
2022-10-10T18:49:29.226Z,14.74
2022-10-10T18:52:02.955Z,14.72
2022-10-10T18:54:36.840Z,14.70
2022-10-10T18:57:10.938Z,14.75
2022-10-10T18:59:43.846Z,14.71
2022-10-10T19:02:16.545Z,14.67
2022-10-10T19:04:50.894Z,14.62
2022-10-10T19:07:23.698Z,14.63
2022-10-10T19:09:56.395Z,14.68
2022-10-10T19:12:30.532Z,14.61
2022-10-10T19:15:03.326Z,14.68
2022-10-10T19:17:36.104Z,14.56
2022-10-10T19:20:09.522Z,14.57
2022-10-10T19:22:42.264Z,14.57
2022-10-10T19:25:15.480Z,14.60
2022-10-10T19:27:49.555Z,14.55
2022-10-10T19:30:22.290Z,14.58
2022-10-10T19:32:54.969Z,14.55
2022-10-10T19:35:27.751Z,14.58
2022-10-10T19:38:00.456Z,14.46
2022-10-10T19:40:33.517Z,14.55
2022-10-10T19:43:07.375Z,14.50
2022-10-10T19:45:41.354Z,14.55
2022-10-10T19:48:14.616Z,14.59
2022-10-10T19:50:48.347Z,14.64
2022-10-10T19:53:21.082Z,14.55
2022-10-10T19:56:01.495Z,14.49
2022-10-10T19:58:37.049Z,14.54
2022-10-10T20:01:11.956Z,14.53
2022-10-10T20:03:45.898Z,14.50
2022-10-10T20:06:20.898Z,14.55
2022-10-10T20:08:54.018Z,14.56
2022-10-10T20:11:27.470Z,14.57
2022-10-10T20:14:02.041Z,14.59
2022-10-10T20:16:35.158Z,14.56
2022-10-10T20:19:10.687Z,14.58
2022-10-10T20:21:43.443Z,14.55
2022-10-10T20:24:16.286Z,14.58
2022-10-10T20:26:49.172Z,14.54
2022-10-10T20:29:23.696Z,14.55
2022-10-10T20:31:56.399Z,14.59
2022-10-10T20:34:29.067Z,14.59
2022-10-10T20:37:02.139Z,14.62
2022-10-10T20:39:34.622Z,14.57
2022-10-10T20:42:07.612Z,14.52
2022-10-10T20:44:41.689Z,14.55
2022-10-10T20:47:14.333Z,14.49
2022-10-10T20:49:47.255Z,14.54
2022-10-10T20:52:20.038Z,14.55
2022-10-10T20:54:53.611Z,14.58
2022-10-10T20:57:26.347Z,14.48
2022-10-10T21:00:00.315Z,14.63
2022-10-10T21:02:33.944Z,14.58
2022-10-10T21:05:07.416Z,14.69
2022-10-10T21:07:40.192Z,14.59
2022-10-10T21:10:13.171Z,14.63
2022-10-10T21:12:45.823Z,14.57
2022-10-10T21:15:20.135Z,14.51
2022-10-10T21:17:53.934Z,14.49
2022-10-10T21:20:26.649Z,14.46
2022-10-10T21:22:59.388Z,14.48
2022-10-10T21:25:32.075Z,14.45
2022-10-10T21:28:05.063Z,14.48
2022-10-10T21:30:39.542Z,14.46
2022-10-10T21:33:12.463Z,14.45
2022-10-10T21:35:45.151Z,14.45
2022-10-10T21:38:17.886Z,14.44
2022-10-10T21:40:51.790Z,14.43
2022-10-10T21:43:24.504Z,14.45
2022-10-10T21:46:03.589Z,14.47
2022-10-10T21:48:36.886Z,14.41
2022-10-10T21:51:09.595Z,14.40
2022-10-10T21:53:42.410Z,14.39
2022-10-10T21:56:15.323Z,14.32
2022-10-10T21:58:48.076Z,14.37
2022-10-10T22:01:24.945Z,14.37
2022-10-10T22:03:58.192Z,14.35
2022-10-10T22:06:31.635Z,14.35
2022-10-10T22:09:07.468Z,14.41
2022-10-10T22:11:40.173Z,14.39
2022-10-10T22:14:12.936Z,14.40
2022-10-10T22:16:46.979Z,14.37
2022-10-10T22:19:19.718Z,14.39
2022-10-10T22:21:52.683Z,14.32
2022-10-10T22:24:25.673Z,14.32
2022-10-10T22:26:58.389Z,14.29
2022-10-10T22:29:31.135Z,14.29
2022-10-10T22:32:05.342Z,14.29
2022-10-10T22:34:38.435Z,14.27
2022-10-10T22:37:11.015Z,14.28
2022-10-10T22:39:44.240Z,14.26
2022-10-10T22:42:17.085Z,14.27
2022-10-10T22:44:49.948Z,14.23
2022-10-10T22:47:24.023Z,14.20
2022-10-10T22:49:56.765Z,14.20
2022-10-10T22:52:29.440Z,14.16
2022-10-10T22:55:02.210Z,14.13
2022-10-10T22:57:35.882Z,14.08
2022-10-10T23:00:10.256Z,14.09
2022-10-10T23:02:44.279Z,14.01
2022-10-10T23:05:17.099Z,14.01
2022-10-10T23:07:49.843Z,13.96
2022-10-10T23:10:22.650Z,13.98
2022-10-10T23:12:55.308Z,13.96
2022-10-10T23:15:28.039Z,13.96
2022-10-10T23:18:02.086Z,13.93
2022-10-10T23:20:37.537Z,13.92
2022-10-10T23:23:10.199Z,13.92
2022-10-10T23:25:44.003Z,13.91
2022-10-10T23:28:17.671Z,13.87
2022-10-10T23:30:51.025Z,13.89
2022-10-10T23:33:25.232Z,13.87
2022-10-10T23:35:59.087Z,13.87
2022-10-10T23:38:32.005Z,13.87
2022-10-10T23:41:05.336Z,13.81
2022-10-10T23:43:38.150Z,13.81
2022-10-10T23:46:11.360Z,13.81
2022-10-10T23:48:45.526Z,13.78
2022-10-10T23:51:18.351Z,13.81
2022-10-10T23:53:51.125Z,13.82
2022-10-10T23:56:23.799Z,13.77
2022-10-10T23:58:56.448Z,13.76
